Tyndall AFB, FL

4:27 AM CDT on October 21, 2014 (GMT -0500)
Panama City Tyndall AFB | Change Station
CLOSE
Current Station
Airport
Location: Panama City Tyndall AFB,
Elevation: 16 ft
Nearby Weather Stations

Elev 16 ft 30.07 °N, 85.58 °W | Updated 29 minutes ago

Clear
Clear
62 °F
Feels Like 62 °F
N
2
Wind Variable Wind from NNE

Today
High -- | Low -- °F
--% Chance of Precip.
Yesterday
High -- | Low -- °F
Precip. -- in
6:48 AM 6:05 PM
Waning Crescent, 6% visible
Pressure 29.98 in
Visibility 10.0 miles
Clouds Clear
Dew Point 57 °F
Humidity 83%
Rainfall 0.00 in
Snow Depth Not available.
UV 0 out of 12
Pollen 5.00 out of 12
Air Quality Not available.
Flu Activity Local Activity
METAR KPAM 210858Z AUTO 03002KT 10SM CLR 17/14 A2997 RMK AO2 SLP152 T01670138 56004 $

More Conditions Fewer Conditions

Pressure 29.98 in
Visibility 10.0 miles
Clouds Clear
Dew Point 57 °F
Humidity 83%
Rainfall 0.00 in
Snow Depth Not available.
UV 0 out of 12
Pollen 5.00 out of 12
Air Quality Not available.
Flu Activity Local Activity
METAR KPAM 210858Z AUTO 03002KT 10SM CLR 17/14 A2997 RMK AO2 SLP152 T01670138 56004 $

More Conditions Fewer Conditions

10-Day Weather Forecast

Almanac

Astronomy

Oct. 21, 2014 Rise Set
Actual Time 6:48 AM CDT 6:05 PM CDT
Civil Twilight 6:23 AM CDT 6:29 PM CDT
Nautical Twilight 5:55 AM CDT 6:57 PM CDT
Astronomical Twilight 5:28 AM CDT 7:25 PM CDT
Moon 4:41 AM CDT 4:51 PM CDT
Length of Visible Light 12h 05m
Length of Day
11h 16m
Tomorrow will be 1m 41s shorter.
Waning Crescent, 6% of the Moon is Illuminated
Today
Waning Crescent
Oct 23
New
Oct 30
First Quarter
Nov 6
Full
Nov 14
Last Quarter

Today's Extremes

State Highs State Lows

Community

WunderPhotos

Upload Photos

1,763,619 photos uploaded!

Nearby

Snow Depth

Station Depth Elevation
No new snow has been reported.

Earthquake Activity

City Distance Mag. Time & Date
No recent earthquake activity has been reported nearby.
Minimum magnitude displayed is 2.5.

Coastal Water Temperatures

Place Temperature
Panama City, FL 75.0 °F
Panama City Beach, FL 78.1 °F
Apalachicola, FL 75.0 °F

Nearby Weather Stations